Time;durP1;ratioP1;P1;durP2;ratioP2;P2;SDS_P1;SDS_P2;PMS_P1;PMS_P2;Temp;Humidity;BMP_temperature;BMP_pressure;BME280_temperature;BME280_humidity;BME280_pressure;Samples;Min_cycle;Max_cycle;Signal;HPM_P1;HPM_P2
2023/04/20 00:00:03;;;;;;;4.18;2.70;;;;;;;;;;580971;24;1312;-75
2023/04/20 00:01:04;;;;;;;4.35;2.30;;;;;;;;;;582306;24;1176;-76
2023/04/20 00:05:13;;;;;;;4.03;2.40;;;;;;;;;;569342;25;1193;-76
2023/04/20 00:06:28;;;;;;;3.83;2.38;;;;;;;;;;566747;25;752;-77
2023/04/20 00:07:40;;;;;;;4.60;2.70;;;;;;;;;;571613;24;1307;-75
2023/04/20 00:09:04;;;;;;;5.13;2.72;;;;;;;;;;573679;24;1289;-75
2023/04/20 00:09:20;;;;;;;4.57;2.75;;;;;;;;;;572807;24;1277;-77
2023/04/20 00:09:36;;;;;;;4.63;2.60;;;;;;;;;;570086;25;1305;-76
2023/04/20 00:10:02;;;;;;;;;;;;;;;;;;;;;
2023/04/20 00:10:43;;;;;;;5.05;2.75;;;;;;;;;;571328;24;1160;-76
2023/04/20 00:11:15;;;;;;;4.07;2.40;;;;;;;;;;579331;24;1336;-76
2023/04/20 00:11:31;;;;;;;5.53;2.78;;;;;;;;;;579066;24;1019;-76
2023/04/20 00:12:00;;;;;;;5.68;2.85;;;;;;;;;;578550;24;1063;-77
2023/04/20 00:12:16;;;;;;;3.30;2.50;;;;;;;;;;580475;24;1108;-76
2023/04/20 00:12:41;;;;;;;3.47;2.55;;;;;;;;;;580448;24;1012;-76
2023/04/20 00:13:03;;;;;;;3.72;2.80;;;;;;;;;;585332;24;1134;-76
2023/04/20 00:13:19;;;;;;;3.80;2.63;;;;;;;;;;581308;24;1201;-76
2023/04/20 00:13:47;;;;;;;4.07;2.67;;;;;;;;;;580710;24;1114;-77
2023/04/20 00:14:06;;;;;;;4.00;2.80;;;;;;;;;;580754;24;1203;-76
2023/04/20 00:14:43;;;;;;;4.20;2.72;;;;;;;;;;578973;24;1283;-77
2023/04/20 00:14:58;;;;;;;4.00;2.70;;;;;;;;;;579504;24;1409;-76
2023/04/20 00:15:26;;;;;;;5.47;2.75;;;;;;;;;;580832;24;1103;-76
2023/04/20 00:15:58;;;;;;;5.13;2.80;;;;;;;;;;580774;24;1154;-76
2023/04/20 00:16:22;;;;;;;4.38;2.53;;;;;;;;;;592051;24;1526;-76
2023/04/20 00:16:47;;;;;;;3.92;2.72;;;;;;;;;;591835;24;1017;-75
2023/04/20 00:17:06;;;;;;;3.80;2.70;;;;;;;;;;592549;24;1401;-76
2023/04/20 00:17:28;;;;;;;4.05;2.70;;;;;;;;;;594244;24;1096;-76
2023/04/20 00:18:09;;;;;;;4.18;2.58;;;;;;;;;;590133;24;1128;-77
2023/04/20 00:19:06;;;;;;;3.75;2.70;;;;;;;;;;590759;24;1143;-77
2023/04/20 00:20:14;;;;;;;3.50;2.38;;;;;;;;;;583104;24;1194;-77
2023/04/20 00:20:14;;;;;;;3.70;2.50;;;;;;;;;;582837;24;1082;-76
2023/04/20 00:20:48;;;;;;;3.17;2.40;;;;;;;;;;581564;24;1339;-76
2023/04/20 00:21:25;;;;;;;3.42;2.35;;;;;;;;;;583932;24;1184;-76
2023/04/20 00:22:32;;;;;;;;;;;;;;;;;;;;;
2023/04/20 00:22:56;;;;;;;4.68;2.70;;;;;;;;;;581549;24;1417;-76
2023/04/20 00:23:41;;;;;;;4.60;2.88;;;;;;;;;;583345;24;1334;-77
2023/04/20 00:24:16;;;;;;;3.72;2.60;;;;;;;;;;576237;24;1337;-76
2023/04/20 00:24:59;;;;;;;4.13;2.60;;;;;;;;;;584433;24;1034;-77
2023/04/20 00:25:55;;;;;;;;;;;;;;;;;;;;;
2023/04/20 00:26:44;;;;;;;4.25;2.60;;;;;;;;;;578049;24;1398;-77
2023/04/20 00:27:14;;;;;;;3.72;2.65;;;;;;;;;;580312;24;1412;-77
2023/04/20 00:28:04;;;;;;;3.95;2.70;;;;;;;;;;580077;24;1112;-77
2023/04/20 00:29:10;;;;;;;2.90;2.33;;;;;;;;;;577333;24;1330;-76
2023/04/20 00:29:57;;;;;;;;;;;;;;;;;;;;;
2023/04/20 00:30:43;;;;;;;3.92;2.70;;;;;;;;;;568551;25;1339;-76
2023/04/20 00:31:22;;;;;;;4.35;2.50;;;;;;;;;;571102;25;1151;-77
2023/04/20 00:32:56;;;;;;;4.38;2.38;;;;;;;;;;570208;25;1263;-77
2023/04/20 00:33:02;;;;;;;4.03;2.60;;;;;;;;;;570810;25;1158;-76
2023/04/20 00:33:20;;;;;;;4.10;2.40;;;;;;;;;;573522;24;1147;-76
2023/04/20 00:34:04;;;;;;;4.82;2.53;;;;;;;;;;570518;25;1262;-76
2023/04/20 00:34:23;;;;;;;3.50;2.58;;;;;;;;;;572645;25;1145;-76
2023/04/20 00:38:34;;;;;;;;;;;;;;;;;;;;;
2023/04/20 00:39:14;;;;;;;4.25;2.67;;;;;;;;;;556226;25;2138;-77
2023/04/20 00:39:40;;;;;;;4.00;2.60;;;;;;;;;;558179;25;1256;-76
2023/04/20 00:39:56;;;;;;;3.55;2.47;;;;;;;;;;556585;25;1186;-76
2023/04/20 00:40:51;;;;;;;;;;;;;;;;;;;;;
2023/04/20 00:41:07;;;;;;;4.95;2.70;;;;;;;;;;556627;25;1215;-76
2023/04/20 00:42:20;;;;;;;4.32;2.55;;;;;;;;;;558598;25;1195;-76
2023/04/20 00:43:09;;;;;;;;;;;;;;;;;;;;;
2023/04/20 00:43:39;;;;;;;2.90;2.47;;;;;;;;;;564646;25;1338;-77
2023/04/20 00:44:12;;;;;;;3.47;2.45;;;;;;;;;;570505;25;1117;-78
2023/04/20 00:44:28;;;;;;;3.38;2.30;;;;;;;;;;565857;25;1137;-77
2023/04/20 00:45:26;;;;;;;;;;;;;;;;;;;;;
2023/04/20 00:46:06;;;;;;;6.20;2.75;;;;;;;;;;560225;25;1004;-77
2023/04/20 00:46:22;;;;;;;4.35;2.65;;;;;;;;;;559141;25;1223;-76
2023/04/20 00:49:17;;;;;;;4.30;2.53;;;;;;;;;;565143;25;1415;-77
2023/04/20 00:49:36;;;;;;;5.03;2.70;;;;;;;;;;568203;25;1164;-77
2023/04/20 00:49:54;;;;;;;4.80;2.70;;;;;;;;;;573915;25;1231;-77
2023/04/20 00:50:29;;;;;;;4.10;2.50;;;;;;;;;;571499;24;1257;-78
2023/04/20 00:51:06;;;;;;;5.97;2.78;;;;;;;;;;570297;24;1204;-77
2023/04/20 00:51:28;;;;;;;3.83;2.65;;;;;;;;;;569823;24;1160;-78
2023/04/20 00:52:13;;;;;;;3.40;2.65;;;;;;;;;;568884;25;1200;-77
2023/04/20 00:52:30;;;;;;;4.60;2.60;;;;;;;;;;571882;25;1300;-77
2023/04/20 00:52:52;;;;;;;6.05;2.58;;;;;;;;;;570297;24;1166;-76
2023/04/20 00:53:08;;;;;;;5.30;2.60;;;;;;;;;;567352;25;1235;-78
2023/04/20 00:53:24;;;;;;;5.33;2.70;;;;;;;;;;564843;25;1123;-77
2023/04/20 00:53:42;;;;;;;5.10;2.60;;;;;;;;;;564368;25;1113;-77
2023/04/20 00:54:08;;;;;;;3.88;2.60;;;;;;;;;;564608;25;1147;-78
2023/04/20 00:54:25;;;;;;;3.72;2.70;;;;;;;;;;567516;25;1215;-77
2023/04/20 00:54:44;;;;;;;4.75;2.80;;;;;;;;;;567770;25;1269;-78
2023/04/20 00:55:09;;;;;;;3.97;2.72;;;;;;;;;;570781;25;1079;-78
2023/04/20 00:55:26;;;;;;;4.15;2.80;;;;;;;;;;570878;24;1022;-77
2023/04/20 00:55:46;;;;;;;4.35;2.65;;;;;;;;;;567698;25;1023;-77
2023/04/20 00:56:08;;;;;;;4.50;2.60;;;;;;;;;;568480;25;1334;-75
2023/04/20 00:56:25;;;;;;;4.07;2.80;;;;;;;;;;567038;24;1164;-78
2023/04/20 00:57:06;;;;;;;3.72;2.65;;;;;;;;;;567509;25;1263;-77
2023/04/20 00:57:26;;;;;;;4.03;2.60;;;;;;;;;;566899;25;1112;-78
2023/04/20 00:57:56;;;;;;;5.40;2.67;;;;;;;;;;570707;25;1080;-77
2023/04/20 00:58:14;;;;;;;3.42;2.65;;;;;;;;;;567030;24;1111;-77
2023/04/20 00:58:38;;;;;;;3.67;2.60;;;;;;;;;;566963;25;1120;-76
2023/04/20 00:59:06;;;;;;;3.75;2.60;;;;;;;;;;564846;25;1996;-78
2023/04/20 00:59:25;;;;;;;3.72;2.55;;;;;;;;;;567607;25;1466;-77
2023/04/20 01:00:09;;;;;;;4.55;2.70;;;;;;;;;;568117;24;1270;-77
2023/04/20 01:00:59;;;;;;;4.78;2.50;;;;;;;;;;565723;25;1017;-77
2023/04/20 01:02:14;;;;;;;3.03;2.50;;;;;;;;;;567296;25;1178;-78
2023/04/20 01:03:14;;;;;;;3.65;2.60;;;;;;;;;;566616;25;1277;-78
2023/04/20 01:03:38;;;;;;;3.40;2.50;;;;;;;;;;564926;25;1155;-77
2023/04/20 01:03:54;;;;;;;4.15;2.55;;;;;;;;;;567267;25;1106;-77
2023/04/20 01:04:11;;;;;;;3.70;2.55;;;;;;;;;;562754;25;1350;-77
2023/04/20 01:04:28;;;;;;;3.33;2.50;;;;;;;;;;564662;25;1168;-78
2023/04/20 01:05:04;;;;;;;4.22;2.60;;;;;;;;;;562439;25;1137;-77
2023/04/20 01:05:50;;;;;;;5.63;2.70;;;;;;;;;;559639;25;1009;-77
2023/04/20 01:06:18;;;;;;;4.63;2.53;;;;;;;;;;560717;25;1411;-77
2023/04/20 01:06:43;;;;;;;4.28;2.67;;;;;;;;;;562461;25;1256;-77
2023/04/20 01:06:59;;;;;;;5.32;2.90;;;;;;;;;;565659;25;1274;-77
2023/04/20 01:07:29;;;;;;;4.60;2.78;;;;;;;;;;569605;25;1251;-77
2023/04/20 01:08:03;;;;;;;5.05;2.80;;;;;;;;;;569530;25;1249;-74
2023/04/20 01:08:49;;;;;;;3.85;2.60;;;;;;;;;;572976;24;1044;-74
2023/04/20 01:09:17;;;;;;;3.53;2.40;;;;;;;;;;570386;24;1297;-75
2023/04/20 01:10:16;;;;;;;4.75;2.50;;;;;;;;;;582571;24;1205;-75
2023/04/20 01:10:52;;;;;;;4.93;2.67;;;;;;;;;;581704;24;1012;-76
2023/04/20 01:11:29;;;;;;;6.25;2.60;;;;;;;;;;587087;24;1337;-76
2023/04/20 01:11:44;;;;;;;4.57;2.53;;;;;;;;;;585891;24;1080;-77
2023/04/20 01:12:09;;;;;;;4.07;2.60;;;;;;;;;;582763;24;975;-76
2023/04/20 01:12:25;;;;;;;4.65;2.60;;;;;;;;;;586061;24;1019;-75
2023/04/20 01:12:44;;;;;;;3.65;2.50;;;;;;;;;;585965;24;1149;-75
2023/04/20 01:13:15;;;;;;;3.42;2.40;;;;;;;;;;587864;24;1080;-76
2023/04/20 01:13:34;;;;;;;5.07;2.60;;;;;;;;;;584194;24;1166;-76
2023/04/20 01:14:07;;;;;;;4.57;2.65;;;;;;;;;;583719;24;1435;-75
2023/04/20 01:14:23;;;;;;;5.63;2.80;;;;;;;;;;581807;24;1188;-76
2023/04/20 01:14:42;;;;;;;5.93;2.83;;;;;;;;;;580319;24;1059;-76
2023/04/20 01:14:58;;;;;;;4.32;2.70;;;;;;;;;;582437;24;1008;-75
2023/04/20 01:15:14;;;;;;;4.50;2.67;;;;;;;;;;581415;24;1362;-76
2023/04/20 01:15:30;;;;;;;5.18;2.65;;;;;;;;;;584324;24;1053;-76
2023/04/20 01:16:10;;;;;;;4.20;2.70;;;;;;;;;;584295;24;970;-76
2023/04/20 01:16:25;;;;;;;4.35;2.80;;;;;;;;;;584389;24;1423;-75
2023/04/20 01:17:09;;;;;;;4.55;2.65;;;;;;;;;;583055;24;1019;-75
2023/04/20 01:17:28;;;;;;;3.08;2.38;;;;;;;;;;579345;24;1310;-76
2023/04/20 01:18:09;;;;;;;4.13;2.60;;;;;;;;;;589154;24;1215;-76
2023/04/20 01:18:46;;;;;;;4.88;2.47;;;;;;;;;;587171;24;1015;-77
2023/04/20 01:19:07;;;;;;;5.78;2.78;;;;;;;;;;586145;24;1971;-76
2023/04/20 01:19:26;;;;;;;4.57;2.78;;;;;;;;;;584839;24;1242;-76
2023/04/20 01:20:06;;;;;;;;;;;;;;;;;;;;;
2023/04/20 01:20:23;;;;;;;4.82;2.67;;;;;;;;;;587431;24;1027;-76
2023/04/20 01:20:39;;;;;;;4.45;2.50;;;;;;;;;;593757;24;1176;-76
2023/04/20 01:22:17;;;;;;;3.53;2.53;;;;;;;;;;595506;23;1348;-76
2023/04/20 01:22:55;;;;;;;3.20;2.47;;;;;;;;;;595527;24;1228;-76
2023/04/20 01:23:11;;;;;;;3.53;2.50;;;;;;;;;;590329;24;1099;-76
2023/04/20 01:23:27;;;;;;;4.20;2.65;;;;;;;;;;588902;24;1324;-76
2023/04/20 01:23:55;;;;;;;5.10;2.80;;;;;;;;;;586783;24;1269;-77
2023/04/20 01:24:36;;;;;;;;;;;;;;;;;;;;;
2023/04/20 01:25:22;;;;;;;3.95;2.70;;;;;;;;;;593842;24;983;-76
2023/04/20 01:25:38;;;;;;;5.60;2.67;;;;;;;;;;605041;23;1280;-76
2023/04/20 01:26:11;;;;;;;5.32;2.60;;;;;;;;;;615079;23;1121;-75
2023/04/20 01:26:37;;;;;;;;;;;;;;;;;;;;;
2023/04/20 01:26:53;;;;;;;4.75;2.67;;;;;;;;;;618428;23;887;-76
2023/04/20 01:27:19;;;;;;;;;;;;;;;;;;;;;
2023/04/20 01:27:35;;;;;;;3.85;2.58;;;;;;;;;;615479;23;991;-76
2023/04/20 01:28:14;;;;;;;4.50;2.65;;;;;;;;;;610383;23;1282;-76
2023/04/20 01:28:50;;;;;;;4.80;2.78;;;;;;;;;;608202;23;1127;-76
2023/04/20 01:29:09;;;;;;;4.15;2.70;;;;;;;;;;605238;23;1329;-76
2023/04/20 01:29:54;;;;;;;4.28;2.80;;;;;;;;;;608101;23;1279;-75
2023/04/20 01:30:11;;;;;;;4.30;2.67;;;;;;;;;;598690;23;1274;-76
2023/04/20 01:30:30;;;;;;;7.70;2.67;;;;;;;;;;607868;23;1290;-76
2023/04/20 01:31:35;;;;;;;5.57;2.67;;;;;;;;;;605833;23;1256;-76
2023/04/20 01:31:52;;;;;;;4.40;2.60;;;;;;;;;;613053;23;1325;-75
2023/04/20 01:32:12;;;;;;;5.20;2.80;;;;;;;;;;611393;23;1134;-76
2023/04/20 01:32:46;;;;;;;4.97;2.83;;;;;;;;;;610935;23;1153;-76
2023/04/20 01:33:02;;;;;;;4.25;2.55;;;;;;;;;;612088;23;1157;-76
2023/04/20 01:33:25;;;;;;;4.68;2.70;;;;;;;;;;607847;23;1128;-76
2023/04/20 01:33:41;;;;;;;4.95;2.80;;;;;;;;;;610944;23;1111;-75
2023/04/20 01:34:06;;;;;;;4.85;2.60;;;;;;;;;;607102;23;1151;-76
2023/04/20 01:34:25;;;;;;;3.80;2.60;;;;;;;;;;610692;23;1015;-76
2023/04/20 01:35:27;;;;;;;4.45;2.78;;;;;;;;;;597260;23;1690;-75
2023/04/20 01:36:21;;;;;;;3.42;2.65;;;;;;;;;;610273;23;994;-76
2023/04/20 01:37:21;;;;;;;3.30;2.50;;;;;;;;;;611989;23;1302;-76
2023/04/20 01:39:02;;;;;;;3.80;2.60;;;;;;;;;;606793;23;682;-76
2023/04/20 01:39:40;;;;;;;3.40;2.50;;;;;;;;;;601608;23;1106;-76
2023/04/20 01:40:08;;;;;;;4.05;2.78;;;;;;;;;;608211;23;1154;-76
2023/04/20 01:40:27;;;;;;;3.25;2.60;;;;;;;;;;604195;23;1468;-75
2023/04/20 01:41:08;;;;;;;3.83;2.60;;;;;;;;;;601283;23;1334;-75
2023/04/20 01:41:25;;;;;;;3.92;2.70;;;;;;;;;;600577;23;1078;-76
2023/04/20 01:42:41;;;;;;;4.38;2.60;;;;;;;;;;594099;24;1167;-75
2023/04/20 01:44:10;;;;;;;4.72;2.92;;;;;;;;;;602964;23;1125;-76
2023/04/20 01:44:40;;;;;;;5.55;2.70;;;;;;;;;;599969;23;1448;-76
2023/04/20 01:46:08;;;;;;;3.90;2.70;;;;;;;;;;613512;23;691;-76
2023/04/20 01:47:07;;;;;;;4.15;2.80;;;;;;;;;;612179;23;1067;-75
2023/04/20 01:47:29;;;;;;;4.50;2.90;;;;;;;;;;611540;23;1228;-76
2023/04/20 01:48:16;;;;;;;5.40;2.80;;;;;;;;;;609720;23;1126;-76
2023/04/20 01:48:37;;;;;;;3.90;2.60;;;;;;;;;;609179;23;1176;-75
2023/04/20 01:48:53;;;;;;;4.53;2.70;;;;;;;;;;610939;23;1128;-76
2023/04/20 01:49:09;;;;;;;4.13;2.72;;;;;;;;;;608698;23;1161;-75
2023/04/20 01:49:27;;;;;;;3.10;2.65;;;;;;;;;;608817;23;1255;-76
2023/04/20 01:49:44;;;;;;;3.58;2.60;;;;;;;;;;610734;23;1272;-76
2023/04/20 01:50:06;;;;;;;4.60;2.80;;;;;;;;;;609565;23;1038;-76
2023/04/20 01:50:49;;;;;;;5.78;2.65;;;;;;;;;;608391;23;1007;-75
2023/04/20 01:51:21;;;;;;;3.67;2.60;;;;;;;;;;611923;23;1123;-76
2023/04/20 01:51:37;;;;;;;4.07;2.53;;;;;;;;;;611075;23;981;-76
2023/04/20 01:52:14;;;;;;;3.33;2.60;;;;;;;;;;609370;23;1220;-76
2023/04/20 01:52:42;;;;;;;;;;;;;;;;;;;;;
2023/04/20 01:53:55;;;;;;;4.80;2.80;;;;;;;;;;614100;23;1431;-76
2023/04/20 01:54:14;;;;;;;5.95;3.00;;;;;;;;;;614015;23;1140;-76
2023/04/20 01:54:53;;;;;;;5.18;2.90;;;;;;;;;;614867;23;1153;-76
2023/04/20 01:55:10;;;;;;;4.22;2.78;;;;;;;;;;608185;23;1460;-76
2023/04/20 01:55:55;;;;;;;4.68;2.70;;;;;;;;;;605246;23;1271;-76
2023/04/20 01:57:45;;;;;;;4.47;2.75;;;;;;;;;;598576;23;1227;-76
2023/04/20 01:58:01;;;;;;;4.13;2.50;;;;;;;;;;603181;23;1118;-76
2023/04/20 01:58:26;;;;;;;4.47;2.80;;;;;;;;;;600815;23;1101;-76
2023/04/20 01:58:50;;;;;;;4.00;2.75;;;;;;;;;;598099;23;1229;-76
2023/04/20 01:59:07;;;;;;;3.90;2.65;;;;;;;;;;606501;23;1929;-76
2023/04/20 01:59:42;;;;;;;4.90;2.85;;;;;;;;;;607651;23;1094;-75
2023/04/20 02:00:06;;;;;;;5.00;2.90;;;;;;;;;;606801;23;1019;-76
2023/04/20 02:00:42;;;;;;;3.85;2.88;;;;;;;;;;610309;23;1179;-76
2023/04/20 02:01:09;;;;;;;4.55;2.70;;;;;;;;;;605939;23;1261;-76
2023/04/20 02:02:39;;;;;;;5.70;2.92;;;;;;;;;;601185;23;1088;-76
2023/04/20 02:02:49;;;;;;;4.18;2.60;;;;;;;;;;607183;23;1318;-76
2023/04/20 02:03:04;;;;;;;5.13;2.88;;;;;;;;;;608915;23;1455;-76
2023/04/20 02:03:40;;;;;;;4.60;2.78;;;;;;;;;;616950;23;1272;-75
2023/04/20 02:04:05;;;;;;;6.07;2.97;;;;;;;;;;598630;23;1244;-76
2023/04/20 02:04:25;;;;;;;4.18;2.80;;;;;;;;;;612683;23;1221;-76
2023/04/20 02:05:10;;;;;;;5.05;2.90;;;;;;;;;;607173;23;1122;-76
2023/04/20 02:05:52;;;;;;;4.22;3.00;;;;;;;;;;600873;23;1197;-76
2023/04/20 02:06:35;;;;;;;5.07;3.03;;;;;;;;;;592949;24;1287;-75
2023/04/20 02:06:58;;;;;;;6.97;3.03;;;;;;;;;;596799;24;1160;-76
2023/04/20 02:07:43;;;;;;;5.50;2.97;;;;;;;;;;594186;24;1215;-76
2023/04/20 02:08:07;;;;;;;3.15;2.70;;;;;;;;;;584287;24;1203;-75
2023/04/20 02:08:25;;;;;;;3.40;2.80;;;;;;;;;;587520;24;1157;-75
2023/04/20 02:09:08;;;;;;;3.78;2.90;;;;;;;;;;588634;24;1129;-75
2023/04/20 02:09:52;;;;;;;3.63;2.72;;;;;;;;;;589810;24;1131;-77
2023/04/20 02:10:30;;;;;;;5.53;3.08;;;;;;;;;;587028;24;1194;-76
2023/04/20 02:11:05;;;;;;;4.47;2.90;;;;;;;;;;595773;24;1162;-76
2023/04/20 02:11:47;;;;;;;4.30;2.90;;;;;;;;;;591318;24;1078;-76
2023/04/20 02:12:39;;;;;;;3.88;2.78;;;;;;;;;;589144;24;1405;-77
2023/04/20 02:12:54;;;;;;;4.13;2.70;;;;;;;;;;589766;24;1192;-76
2023/04/20 02:13:13;;;;;;;5.53;2.70;;;;;;;;;;589375;24;1195;-76
2023/04/20 02:13:32;;;;;;;5.45;2.83;;;;;;;;;;591985;24;1025;-75
2023/04/20 02:14:26;;;;;;;4.45;3.10;;;;;;;;;;592060;24;1111;-75
2023/04/20 02:15:38;;;;;;;6.68;3.17;;;;;;;;;;592252;24;723;-75
2023/04/20 02:16:23;;;;;;;3.33;2.60;;;;;;;;;;593861;24;1032;-75
2023/04/20 02:16:45;;;;;;;4.65;2.70;;;;;;;;;;595468;24;1385;-75
2023/04/20 02:17:07;;;;;;;6.55;3.00;;;;;;;;;;591045;24;1472;-76
2023/04/20 02:18:08;;;;;;;7.07;3.03;;;;;;;;;;588650;24;962;-77
2023/04/20 02:18:23;;;;;;;4.05;2.90;;;;;;;;;;592018;24;1149;-76
2023/04/20 02:19:10;;;;;;;4.10;2.80;;;;;;;;;;593064;24;1119;-76
2023/04/20 02:19:36;;;;;;;5.50;2.90;;;;;;;;;;595700;24;1167;-76
2023/04/20 02:20:15;;;;;;;5.55;2.90;;;;;;;;;;593549;24;1028;-76
2023/04/20 02:20:53;;;;;;;3.28;2.60;;;;;;;;;;585533;24;1152;-76
2023/04/20 02:21:07;;;;;;;3.92;2.67;;;;;;;;;;591526;24;1192;-76
2023/04/20 02:21:43;;;;;;;4.25;2.90;;;;;;;;;;592625;24;1231;-76
2023/04/20 02:22:08;;;;;;;4.80;2.70;;;;;;;;;;590612;24;1143;-75
2023/04/20 02:22:40;;;;;;;3.50;2.65;;;;;;;;;;591919;24;1138;-76
2023/04/20 02:23:10;;;;;;;3.90;2.70;;;;;;;;;;592366;24;1255;-76
2023/04/20 02:23:37;;;;;;;4.45;2.90;;;;;;;;;;594317;24;876;-75
2023/04/20 02:24:02;;;;;;;6.15;3.30;;;;;;;;;;594589;24;1191;-76
2023/04/20 02:24:24;;;;;;;4.03;3.00;;;;;;;;;;594787;24;1433;-76
2023/04/20 02:24:42;;;;;;;4.70;3.17;;;;;;;;;;595367;24;1123;-76
2023/04/20 02:25:15;;;;;;;5.25;3.22;;;;;;;;;;594624;24;1101;-76
2023/04/20 02:25:58;;;;;;;5.22;3.25;;;;;;;;;;595419;24;1170;-76
2023/04/20 02:26:27;;;;;;;;;;;;;;;;;;;;;
2023/04/20 02:26:43;;;;;;;4.90;3.17;;;;;;;;;;592732;24;801;-76
2023/04/20 02:27:10;;;;;;;5.20;3.20;;;;;;;;;;592138;24;1108;-76
2023/04/20 02:27:26;;;;;;;5.45;3.22;;;;;;;;;;591308;24;1118;-76
2023/04/20 02:29:09;;;;;;;3.90;3.10;;;;;;;;;;596074;24;1212;-75
2023/04/20 02:29:47;;;;;;;;;;;;;;;;;;;;;
2023/04/20 02:30:03;;;;;;;3.83;3.20;;;;;;;;;;599001;23;955;-75
2023/04/20 02:31:05;;;;;;;4.03;3.10;;;;;;;;;;598329;24;1230;-76
2023/04/20 02:31:24;;;;;;;5.70;3.60;;;;;;;;;;581401;24;1059;-77
2023/04/20 02:31:49;;;;;;;5.60;3.42;;;;;;;;;;592957;24;1184;-76
2023/04/20 02:32:55;;;;;;;5.90;3.33;;;;;;;;;;593482;24;1294;-76
2023/04/20 02:33:51;;;;;;;5.20;3.17;;;;;;;;;;594998;24;1037;-77
2023/04/20 02:34:10;;;;;;;4.40;3.28;;;;;;;;;;597652;23;1166;-76
2023/04/20 02:34:26;;;;;;;4.63;3.58;;;;;;;;;;597686;23;1117;-76
2023/04/20 02:34:41;;;;;;;5.03;3.58;;;;;;;;;;597803;23;1159;-76
2023/04/20 02:35:29;;;;;;;4.22;3.30;;;;;;;;;;598431;23;1012;-76
2023/04/20 02:36:05;;;;;;;5.97;3.40;;;;;;;;;;598474;23;1192;-75
2023/04/20 02:36:27;;;;;;;5.18;3.45;;;;;;;;;;590859;24;1008;-76
2023/04/20 02:37:05;;;;;;;5.82;3.40;;;;;;;;;;587148;24;1283;-76
2023/04/20 02:37:56;;;;;;;4.50;3.30;;;;;;;;;;588403;24;1061;-75
2023/04/20 02:38:24;;;;;;;6.72;3.55;;;;;;;;;;591062;24;1217;-76
2023/04/20 02:38:58;;;;;;;4.50;3.08;;;;;;;;;;594080;24;1274;-77
2023/04/20 02:40:05;;;;;;;5.45;3.22;;;;;;;;;;592109;24;1324;-76
2023/04/20 02:41:27;;;;;;;5.50;3.15;;;;;;;;;;591056;24;1051;-75
2023/04/20 02:41:46;;;;;;;5.07;3.38;;;;;;;;;;582290;24;1162;-75
2023/04/20 02:42:05;;;;;;;4.93;3.40;;;;;;;;;;585344;24;1068;-75
2023/04/20 02:43:39;;;;;;;5.18;3.30;;;;;;;;;;581364;24;962;-76
2023/04/20 02:44:07;;;;;;;4.68;3.25;;;;;;;;;;575129;24;1134;-76
2023/04/20 02:44:37;;;;;;;4.97;3.80;;;;;;;;;;579387;24;1147;-76
2023/04/20 02:45:44;;;;;;;5.47;3.40;;;;;;;;;;584824;24;1082;-76
2023/04/20 02:46:07;;;;;;;4.68;3.40;;;;;;;;;;590129;24;1217;-75
2023/04/20 02:46:46;;;;;;;5.25;3.50;;;;;;;;;;579831;24;1563;-76
2023/04/20 02:47:15;;;;;;;4.65;3.47;;;;;;;;;;573468;24;1182;-76
2023/04/20 02:48:14;;;;;;;4.97;3.70;;;;;;;;;;574533;24;1226;-76
2023/04/20 02:48:39;;;;;;;4.95;3.42;;;;;;;;;;576322;24;860;-76
2023/04/20 02:49:21;;;;;;;6.57;3.78;;;;;;;;;;581922;24;1214;-76
2023/04/20 02:49:46;;;;;;;5.97;3.65;;;;;;;;;;581914;24;1167;-75
2023/04/20 02:50:08;;;;;;;5.68;3.50;;;;;;;;;;586884;24;1125;-75
2023/04/20 02:50:42;;;;;;;5.40;3.67;;;;;;;;;;581468;24;1015;-75
2023/04/20 02:51:07;;;;;;;4.32;3.60;;;;;;;;;;579053;24;1099;-75
2023/04/20 02:51:30;;;;;;;5.57;3.60;;;;;;;;;;581723;24;1114;-76
2023/04/20 02:52:10;;;;;;;4.88;3.55;;;;;;;;;;582624;24;1000;-76
2023/04/20 02:52:26;;;;;;;6.47;5.60;;;;;;;;;;582254;24;1394;-76
2023/04/20 02:52:55;;;;;;;7.22;5.28;;;;;;;;;;581283;24;1019;-76
2023/04/20 02:53:11;;;;;;;5.30;4.05;;;;;;;;;;580820;24;1264;-75
2023/04/20 02:53:38;;;;;;;5.57;3.97;;;;;;;;;;580589;24;1076;-76
2023/04/20 02:54:03;;;;;;;5.70;3.90;;;;;;;;;;581032;24;1289;-77
2023/04/20 02:54:28;;;;;;;5.28;3.80;;;;;;;;;;583498;24;1011;-76
2023/04/20 02:54:47;;;;;;;5.55;3.80;;;;;;;;;;584612;24;1168;-76
2023/04/20 02:55:14;;;;;;;5.25;3.63;;;;;;;;;;582628;24;1135;-76
2023/04/20 02:55:45;;;;;;;8.18;3.80;;;;;;;;;;580942;24;1236;-75
2023/04/20 02:56:04;;;;;;;3.95;3.50;;;;;;;;;;582145;24;1245;-76
2023/04/20 02:56:26;;;;;;;4.13;3.42;;;;;;;;;;585302;24;1221;-76
2023/04/20 02:56:42;;;;;;;5.18;3.70;;;;;;;;;;584607;24;1367;-76
2023/04/20 02:57:11;;;;;;;6.07;3.78;;;;;;;;;;586404;24;1233;-76
2023/04/20 02:57:42;;;;;;;6.22;3.60;;;;;;;;;;584550;24;1199;-76
2023/04/20 02:58:47;;;;;;;5.30;3.78;;;;;;;;;;583603;24;1390;-76
2023/04/20 02:59:03;;;;;;;4.95;3.90;;;;;;;;;;571158;25;1994;-76
2023/04/20 03:00:01;;;;;;;5.72;3.95;;;;;;;;;;575563;24;1131;-75
2023/04/20 03:01:23;;;;;;;4.63;3.80;;;;;;;;;;577268;24;1620;-76
2023/04/20 03:01:41;;;;;;;5.82;3.97;;;;;;;;;;579141;24;1350;-76
2023/04/20 03:02:03;;;;;;;5.65;3.90;;;;;;;;;;579163;24;1147;-77
2023/04/20 03:03:37;;;;;;;6.00;4.20;;;;;;;;;;577321;24;762;-75
2023/04/20 03:04:06;;;;;;;4.63;3.83;;;;;;;;;;575845;24;1263;-76
2023/04/20 03:05:44;;;;;;;6.88;4.30;;;;;;;;;;565947;25;1468;-77
2023/04/20 03:06:02;;;;;;;5.78;4.30;;;;;;;;;;565891;25;1292;-76
2023/04/20 03:06:59;;;;;;;4.82;4.18;;;;;;;;;;562670;25;1390;-76
2023/04/20 03:07:28;;;;;;;6.00;4.45;;;;;;;;;;562369;25;1289;-76
2023/04/20 03:07:44;;;;;;;6.65;4.50;;;;;;;;;;563176;25;1232;-75
2023/04/20 03:08:00;;;;;;;7.50;4.18;;;;;;;;;;568834;25;1314;-76
2023/04/20 03:08:16;;;;;;;8.25;4.22;;;;;;;;;;569321;25;1579;-75
2023/04/20 03:09:21;;;;;;;6.65;4.32;;;;;;;;;;569066;25;1208;-76
2023/04/20 03:10:01;;;;;;;4.70;4.10;;;;;;;;;;562697;25;1336;-76
2023/04/20 03:10:53;;;;;;;5.28;4.30;;;;;;;;;;568614;25;1188;-76
2023/04/20 03:11:12;;;;;;;5.50;4.55;;;;;;;;;;571394;24;1400;-76
2023/04/20 03:11:28;;;;;;;4.90;4.20;;;;;;;;;;571415;24;1127;-76
2023/04/20 03:12:37;;;;;;;5.38;4.60;;;;;;;;;;571185;25;1348;-76
2023/04/20 03:12:53;;;;;;;4.90;4.40;;;;;;;;;;570598;25;1260;-77
2023/04/20 03:13:08;;;;;;;5.10;4.55;;;;;;;;;;568078;24;1043;-76
2023/04/20 03:13:24;;;;;;;5.50;4.50;;;;;;;;;;573891;24;1174;-76
2023/04/20 03:13:58;;;;;;;5.80;4.35;;;;;;;;;;570523;24;988;-76
2023/04/20 03:14:38;;;;;;;5.38;4.45;;;;;;;;;;570557;24;1056;-75
2023/04/20 03:14:56;;;;;;;6.60;4.50;;;;;;;;;;571275;24;1370;-74
2023/04/20 03:15:51;;;;;;;4.88;4.38;;;;;;;;;;570060;24;1329;-76
2023/04/20 03:16:48;;;;;;;5.95;4.60;;;;;;;;;;570968;25;1523;-75
2023/04/20 03:18:05;;;;;;;5.53;4.63;;;;;;;;;;578362;24;1220;-76
2023/04/20 03:18:37;;;;;;;4.78;4.07;;;;;;;;;;572734;24;1345;-76
2023/04/20 03:18:53;;;;;;;7.07;4.65;;;;;;;;;;576698;24;1157;-75
2023/04/20 03:20:02;;;;;;;4.82;4.32;;;;;;;;;;589707;24;774;-76
2023/04/20 03:20:29;;;;;;;5.63;4.68;;;;;;;;;;578930;24;1180;-76
2023/04/20 03:20:54;;;;;;;6.18;4.90;;;;;;;;;;577089;24;1346;-76
2023/04/20 03:22:09;;;;;;;7.07;4.80;;;;;;;;;;580957;24;1352;-74
2023/04/20 03:22:28;;;;;;;6.80;4.70;;;;;;;;;;574930;24;1105;-76
2023/04/20 03:23:10;;;;;;;6.47;4.60;;;;;;;;;;577073;24;1281;-75
2023/04/20 03:23:28;;;;;;;6.65;4.80;;;;;;;;;;582160;24;1122;-75
2023/04/20 03:23:44;;;;;;;7.40;4.72;;;;;;;;;;575012;24;1175;-76
2023/04/20 03:24:03;;;;;;;6.10;4.60;;;;;;;;;;575655;24;1166;-75
2023/04/20 03:25:05;;;;;;;7.15;4.85;;;;;;;;;;580515;24;1332;-75
2023/04/20 03:25:23;;;;;;;8.00;4.90;;;;;;;;;;577833;24;1205;-75
2023/04/20 03:25:49;;;;;;;5.95;4.53;;;;;;;;;;577363;24;1137;-75
2023/04/20 03:26:33;;;;;;;5.85;4.55;;;;;;;;;;578666;24;1029;-75
2023/04/20 03:28:40;;;;;;;7.35;5.10;;;;;;;;;;572898;24;1186;-76
2023/04/20 03:29:11;;;;;;;6.15;4.90;;;;;;;;;;577327;24;1571;-75
2023/04/20 03:29:53;;;;;;;;;;;;;;;;;;;;;
2023/04/20 03:30:13;;;;;;;5.45;4.78;;;;;;;;;;578307;24;1359;-76
2023/04/20 03:30:38;;;;;;;6.45;5.00;;;;;;;;;;581152;24;1080;-76
2023/04/20 03:31:12;;;;;;;5.88;4.82;;;;;;;;;;578025;24;1139;-75
2023/04/20 03:31:54;;;;;;;8.00;5.00;;;;;;;;;;578100;24;1084;-76
2023/04/20 03:32:13;;;;;;;5.60;4.90;;;;;;;;;;578719;24;1183;-77
2023/04/20 03:32:53;;;;;;;5.95;5.00;;;;;;;;;;575099;24;1231;-76
2023/04/20 03:33:09;;;;;;;5.70;4.65;;;;;;;;;;577536;24;1101;-76
2023/04/20 03:33:38;;;;;;;6.15;5.05;;;;;;;;;;578045;24;1154;-77
2023/04/20 03:34:14;;;;;;;7.20;5.32;;;;;;;;;;577227;24;1133;-76
2023/04/20 03:34:40;;;;;;;7.00;5.30;;;;;;;;;;574653;24;1253;-75
2023/04/20 03:35:26;;;;;;;6.45;5.30;;;;;;;;;;573782;24;1178;-76
2023/04/20 03:35:45;;;;;;;5.60;4.95;;;;;;;;;;580791;24;1232;-76
2023/04/20 03:36:00;;;;;;;6.22;5.15;;;;;;;;;;578955;24;1178;-76
2023/04/20 03:36:27;;;;;;;5.43;4.93;;;;;;;;;;577654;24;994;-76
2023/04/20 03:37:02;;;;;;;6.20;4.90;;;;;;;;;;580878;24;1162;-77
2023/04/20 03:38:23;;;;;;;6.30;5.22;;;;;;;;;;581259;24;1110;-77
2023/04/20 03:38:30;;;;;;;5.95;5.20;;;;;;;;;;585371;24;982;-76
2023/04/20 03:38:39;;;;;;;6.15;5.40;;;;;;;;;;585356;24;1247;-76
2023/04/20 03:38:58;;;;;;;5.82;5.15;;;;;;;;;;588880;24;1116;-77
2023/04/20 03:39:40;;;;;;;6.63;4.95;;;;;;;;;;583761;24;1942;-77
2023/04/20 03:40:06;;;;;;;6.50;5.07;;;;;;;;;;584610;24;1346;-76
2023/04/20 03:40:30;;;;;;;6.97;5.25;;;;;;;;;;580391;24;1125;-76
2023/04/20 03:41:19;;;;;;;7.22;5.40;;;;;;;;;;578451;24;1169;-76
2023/04/20 03:41:35;;;;;;;6.63;5.30;;;;;;;;;;583755;24;1195;-76
2023/04/20 03:41:53;;;;;;;7.45;5.35;;;;;;;;;;582507;24;1022;-76